sensor_id;sensor_type;location;lat;lon;timestamp;pressure;altitude;pressure_sealevel;temperature;humidity
11468;BME280;5790;42.762;23.430;2023-07-29T00:00:04;72016.91;;;-142.66;66.58
11468;BME280;5790;42.762;23.430;2023-07-29T00:02:32;72000.59;;;-142.66;65.95
11468;BME280;5790;42.762;23.430;2023-07-29T00:04:59;71978.16;;;-142.66;65.65
11468;BME280;5790;42.762;23.430;2023-07-29T00:07:26;71967.94;;;-142.66;65.45
11468;BME280;5790;42.762;23.430;2023-07-29T00:09:54;71976.09;;;-142.66;65.96
11468;BME280;5790;42.762;23.430;2023-07-29T00:12:22;71974.06;;;-142.66;65.40
11468;BME280;5790;42.762;23.430;2023-07-29T00:14:49;71970.00;;;-142.66;65.13
11468;BME280;5790;42.762;23.430;2023-07-29T00:17:16;71976.09;;;-142.66;65.04
11468;BME280;5790;42.762;23.430;2023-07-29T00:19:43;71978.16;;;-142.66;64.95
11468;BME280;5790;42.762;23.430;2023-07-29T00:22:11;71976.09;;;-142.66;65.53
11468;BME280;5790;42.762;23.430;2023-07-29T00:24:39;71974.06;;;-142.66;65.83
11468;BME280;5790;42.762;23.430;2023-07-29T00:27:08;71972.03;;;-142.66;65.26
11468;BME280;5790;42.762;23.430;2023-07-29T00:29:35;71963.88;;;-142.66;65.38
11468;BME280;5790;42.762;23.430;2023-07-29T00:32:02;71961.81;;;-142.66;65.74
11468;BME280;5790;42.762;23.430;2023-07-29T00:34:29;71965.91;;;-142.66;65.29
11468;BME280;5790;42.762;23.430;2023-07-29T00:36:56;71974.06;;;-142.66;64.58
11468;BME280;5790;42.762;23.430;2023-07-29T00:39:23;71974.06;;;-142.66;62.69
11468;BME280;5790;42.762;23.430;2023-07-29T00:41:50;71974.06;;;-142.66;60.89
11468;BME280;5790;42.762;23.430;2023-07-29T00:44:19;71965.91;;;-142.66;60.51
11468;BME280;5790;42.762;23.430;2023-07-29T00:46:46;71974.06;;;-142.66;60.52
11468;BME280;5790;42.762;23.430;2023-07-29T00:49:14;71990.41;;;-142.66;60.79
11468;BME280;5790;42.762;23.430;2023-07-29T00:51:41;71990.41;;;-142.66;60.56
11468;BME280;5790;42.762;23.430;2023-07-29T00:54:08;71990.41;;;-142.66;60.47
11468;BME280;5790;42.762;23.430;2023-07-29T00:56:35;72016.91;;;-142.66;61.32
11468;BME280;5790;42.762;23.430;2023-07-29T00:59:03;72016.91;;;-142.66;61.18
11468;BME280;5790;42.762;23.430;2023-07-29T01:01:32;72010.81;;;-142.66;61.43
11468;BME280;5790;42.762;23.430;2023-07-29T01:03:59;71998.56;;;-142.66;60.73
11468;BME280;5790;42.762;23.430;2023-07-29T01:06:34;72010.81;;;-142.66;60.93
11468;BME280;5790;42.762;23.430;2023-07-29T01:09:09;72010.81;;;-142.66;61.08
11468;BME280;5790;42.762;23.430;2023-07-29T01:11:48;72037.31;;;-142.66;61.85
11468;BME280;5790;42.762;23.430;2023-07-29T01:14:24;72045.50;;;-142.66;62.76
11468;BME280;5790;42.762;23.430;2023-07-29T01:16:58;72041.41;;;-142.66;62.29
11468;BME280;5790;42.762;23.430;2023-07-29T01:19:42;72037.31;;;-142.66;62.38
11468;BME280;5790;42.762;23.430;2023-07-29T01:22:10;72039.38;;;-142.66;62.20
11468;BME280;5790;42.762;23.430;2023-07-29T01:24:39;72043.44;;;-142.66;63.02
11468;BME280;5790;42.762;23.430;2023-07-29T01:27:06;72151.59;;;-142.66;67.13
11468;BME280;5790;42.762;23.430;2023-07-29T01:29:34;72143.44;;;-142.66;67.83
11468;BME280;5790;42.762;23.430;2023-07-29T01:32:06;72139.34;;;-142.66;67.97
11468;BME280;5790;42.762;23.430;2023-07-29T01:34:43;72190.38;;;-142.66;69.90
11468;BME280;5790;42.762;23.430;2023-07-29T01:37:16;72247.50;;;-142.66;71.77
11468;BME280;5790;42.762;23.430;2023-07-29T01:39:49;72288.31;;;-142.66;73.97
11468;BME280;5790;42.762;23.430;2023-07-29T01:42:17;72302.63;;;-142.66;74.90
11468;BME280;5790;42.762;23.430;2023-07-29T01:44:44;72276.09;;;-142.66;74.31
11468;BME280;5790;42.762;23.430;2023-07-29T01:47:11;72294.44;;;-142.66;74.43
11468;BME280;5790;42.762;23.430;2023-07-29T01:49:38;72267.91;;;-142.66;74.07
11468;BME280;5790;42.762;23.430;2023-07-29T01:52:06;72259.75;;;-142.66;74.07
11468;BME280;5790;42.762;23.430;2023-07-29T01:54:33;72255.69;;;-142.66;73.35
11468;BME280;5790;42.762;23.430;2023-07-29T01:57:01;72237.31;;;-142.66;73.43
11468;BME280;5790;42.762;23.430;2023-07-29T01:59:28;72220.97;;;-142.66;72.54
11468;BME280;5790;42.762;23.430;2023-07-29T02:01:55;72200.56;;;-142.66;71.93
11468;BME280;5790;42.762;23.430;2023-07-29T02:04:22;72210.78;;;-142.66;72.39
11468;BME280;5790;42.762;23.430;2023-07-29T02:06:49;72200.56;;;-142.66;71.83
11468;BME280;5790;42.762;23.430;2023-07-29T02:09:16;72188.34;;;-142.66;71.19
11468;BME280;5790;42.762;23.430;2023-07-29T02:11:43;72182.22;;;-142.66;71.39
11468;BME280;5790;42.762;23.430;2023-07-29T02:14:12;72176.09;;;-142.66;70.78
11468;BME280;5790;42.762;23.430;2023-07-29T02:16:39;72167.94;;;-142.66;70.52
11468;BME280;5790;42.762;23.430;2023-07-29T02:19:07;72163.84;;;-142.66;70.49
11468;BME280;5790;42.762;23.430;2023-07-29T02:21:34;72165.88;;;-142.66;70.77
11468;BME280;5790;42.762;23.430;2023-07-29T02:24:01;72149.56;;;-142.66;70.83
11468;BME280;5790;42.762;23.430;2023-07-29T02:26:28;72143.44;;;-142.66;70.43
11468;BME280;5790;42.762;23.430;2023-07-29T02:28:55;72145.47;;;-142.66;70.33
11468;BME280;5790;42.762;23.430;2023-07-29T02:31:24;72137.31;;;-142.66;69.92
11468;BME280;5790;42.762;23.430;2023-07-29T02:33:51;72131.19;;;-142.66;69.36
11468;BME280;5790;42.762;23.430;2023-07-29T02:36:19;72141.41;;;-142.66;69.46
11468;BME280;5790;42.762;23.430;2023-07-29T02:38:46;72174.03;;;-142.66;70.14
11468;BME280;5790;42.762;23.430;2023-07-29T02:41:13;72192.41;;;-142.66;70.52
11468;BME280;5790;42.762;23.430;2023-07-29T02:43:42;72218.94;;;-142.66;70.94
11468;BME280;5790;42.762;23.430;2023-07-29T02:46:09;72214.84;;;-142.66;71.13
11468;BME280;5790;42.762;23.430;2023-07-29T02:48:37;72202.63;;;-142.66;71.37
11468;BME280;5790;42.762;23.430;2023-07-29T02:51:04;72198.53;;;-142.66;71.45
11468;BME280;5790;42.762;23.430;2023-07-29T02:53:32;72202.63;;;-142.66;71.02
11468;BME280;5790;42.762;23.430;2023-07-29T02:55:59;72202.63;;;-142.66;70.43
11468;BME280;5790;42.762;23.430;2023-07-29T02:58:26;72184.25;;;-142.66;70.72
11468;BME280;5790;42.762;23.430;2023-07-29T03:00:53;72182.22;;;-142.66;69.55
11468;BME280;5790;42.762;23.430;2023-07-29T03:03:20;72194.47;;;-142.66;69.84
11468;BME280;5790;42.762;23.430;2023-07-29T03:05:48;72206.69;;;-142.66;70.35
11468;BME280;5790;42.762;23.430;2023-07-29T03:08:15;72204.66;;;-142.66;69.93
11468;BME280;5790;42.762;23.430;2023-07-29T03:10:42;72218.94;;;-142.66;70.09
11468;BME280;5790;42.762;23.430;2023-07-29T03:13:09;72227.09;;;-142.66;71.30
11468;BME280;5790;42.762;23.430;2023-07-29T03:15:37;72227.09;;;-142.66;71.00
11468;BME280;5790;42.762;23.430;2023-07-29T03:18:04;72245.47;;;-142.66;71.84
11468;BME280;5790;42.762;23.430;2023-07-29T03:20:31;72253.63;;;-142.66;71.40
11468;BME280;5790;42.762;23.430;2023-07-29T03:22:59;72241.38;;;-142.66;71.08
11468;BME280;5790;42.762;23.430;2023-07-29T03:25:26;72227.09;;;-142.66;71.02
11468;BME280;5790;42.762;23.430;2023-07-29T03:27:54;72208.75;;;-142.66;70.72
11468;BME280;5790;42.762;23.430;2023-07-29T03:30:21;72225.06;;;-142.66;70.92
11468;BME280;5790;42.762;23.430;2023-07-29T03:32:49;72251.59;;;-142.66;71.10
11468;BME280;5790;42.762;23.430;2023-07-29T03:35:16;72263.84;;;-142.66;71.05
11468;BME280;5790;42.762;23.430;2023-07-29T03:37:43;72255.69;;;-142.66;71.20
11468;BME280;5790;42.762;23.430;2023-07-29T03:40:12;72269.97;;;-142.66;70.72
11468;BME280;5790;42.762;23.430;2023-07-29T03:42:39;72276.09;;;-142.66;71.20
11468;BME280;5790;42.762;23.430;2023-07-29T03:45:07;72267.91;;;-142.66;70.79
11468;BME280;5790;42.762;23.430;2023-07-29T03:47:35;72257.72;;;-142.66;71.29
11468;BME280;5790;42.762;23.430;2023-07-29T03:50:02;72249.56;;;-142.66;70.60
11468;BME280;5790;42.762;23.430;2023-07-29T03:52:30;72257.72;;;-142.66;71.13
11468;BME280;5790;42.762;23.430;2023-07-29T03:54:57;72253.63;;;-142.66;71.22
11468;BME280;5790;42.762;23.430;2023-07-29T03:57:26;72249.56;;;-142.66;71.08
11468;BME280;5790;42.762;23.430;2023-07-29T03:59:54;72249.56;;;-142.66;71.24
11468;BME280;5790;42.762;23.430;2023-07-29T04:02:21;72257.72;;;-142.66;71.32
11468;BME280;5790;42.762;23.430;2023-07-29T04:04:48;72251.59;;;-142.66;71.80
11468;BME280;5790;42.762;23.430;2023-07-29T04:07:15;72257.72;;;-142.66;72.03
11468;BME280;5790;42.762;23.430;2023-07-29T04:09:42;72245.47;;;-142.66;72.18
11468;BME280;5790;42.762;23.430;2023-07-29T04:12:10;72239.34;;;-142.66;72.13
11468;BME280;5790;42.762;23.430;2023-07-29T04:14:38;72216.91;;;-142.66;72.15
11468;BME280;5790;42.762;23.430;2023-07-29T04:17:05;72206.69;;;-142.66;72.30
11468;BME280;5790;42.762;23.430;2023-07-29T04:19:32;72198.53;;;-142.66;72.42
11468;BME280;5790;42.762;23.430;2023-07-29T04:21:59;72188.34;;;-142.66;72.29
11468;BME280;5790;42.762;23.430;2023-07-29T04:24:27;72241.38;;;-142.66;74.17
11468;BME280;5790;42.762;23.430;2023-07-29T04:26:54;72229.16;;;-142.66;74.53
11468;BME280;5790;42.762;23.430;2023-07-29T04:29:21;72229.16;;;-142.66;74.95
11468;BME280;5790;42.762;23.430;2023-07-29T04:31:49;72206.69;;;-142.66;74.91
11468;BME280;5790;42.762;23.430;2023-07-29T04:34:17;72267.91;;;-142.66;76.52
11468;BME280;5790;42.762;23.430;2023-07-29T04:36:44;72253.63;;;-142.66;75.67
11468;BME280;5790;42.762;23.430;2023-07-29T04:39:11;72220.97;;;-142.66;74.85
11468;BME280;5790;42.762;23.430;2023-07-29T04:41:38;72208.75;;;-142.66;74.29
11468;BME280;5790;42.762;23.430;2023-07-29T04:44:05;72206.69;;;-142.66;73.37
11468;BME280;5790;42.762;23.430;2023-07-29T04:46:33;72198.53;;;-142.66;72.18
11468;BME280;5790;42.762;23.430;2023-07-29T04:49:02;72176.09;;;-142.66;71.14
11468;BME280;5790;42.762;23.430;2023-07-29T04:51:29;72155.69;;;-142.66;70.91
11468;BME280;5790;42.762;23.430;2023-07-29T04:53:57;72133.22;;;-142.66;70.53
11468;BME280;5790;42.762;23.430;2023-07-29T04:56:24;72108.75;;;-142.66;69.93
11468;BME280;5790;42.762;23.430;2023-07-29T04:58:52;72084.25;;;-142.66;68.65
11468;BME280;5790;42.762;23.430;2023-07-29T05:01:19;72063.84;;;-142.66;67.04
11468;BME280;5790;42.762;23.430;2023-07-29T05:03:46;72053.66;;;-142.66;67.27
11468;BME280;5790;42.762;23.430;2023-07-29T05:06:15;72027.13;;;-142.66;66.75
11468;BME280;5790;42.762;23.430;2023-07-29T05:08:42;72004.69;;;-142.66;65.49
11468;BME280;5790;42.762;23.430;2023-07-29T05:11:09;71978.16;;;-142.66;64.91
11468;BME280;5790;42.762;23.430;2023-07-29T05:13:36;71945.50;;;-142.66;64.36
11468;BME280;5790;42.762;23.430;2023-07-29T05:16:03;71937.34;;;-142.66;62.76
11468;BME280;5790;42.762;23.430;2023-07-29T05:18:30;71937.34;;;-142.66;63.12
11468;BME280;5790;42.762;23.430;2023-07-29T05:20:57;71925.09;;;-142.66;63.26
11468;BME280;5790;42.762;23.430;2023-07-29T05:23:26;71904.69;;;-142.66;62.65
11468;BME280;5790;42.762;23.430;2023-07-29T05:25:53;71886.31;;;-142.66;61.95
11468;BME280;5790;42.762;23.430;2023-07-29T05:28:20;71861.84;;;-142.66;61.53
11468;BME280;5790;42.762;23.430;2023-07-29T05:30:47;71841.44;;;-142.66;61.01
11468;BME280;5790;42.762;23.430;2023-07-29T05:33:14;71821.03;;;-142.66;60.15
11468;BME280;5790;42.762;23.430;2023-07-29T05:35:41;71794.50;;;-142.66;59.96
11468;BME280;5790;42.762;23.430;2023-07-29T05:38:08;71786.34;;;-142.66;59.40
11468;BME280;5790;42.762;23.430;2023-07-29T05:40:37;71761.84;;;-142.66;58.54
11468;BME280;5790;42.762;23.430;2023-07-29T05:43:04;71759.81;;;-142.66;56.57
11468;BME280;5790;42.762;23.430;2023-07-29T05:45:31;71765.94;;;-142.66;56.56
11468;BME280;5790;42.762;23.430;2023-07-29T05:47:58;71729.22;;;-142.66;55.06
11468;BME280;5790;42.762;23.430;2023-07-29T05:50:25;71714.94;;;-142.66;54.29
11468;BME280;5790;42.762;23.430;2023-07-29T05:52:52;71708.81;;;-142.66;53.09
11468;BME280;5790;42.762;23.430;2023-07-29T05:55:19;71680.25;;;-142.66;53.25
11468;BME280;5790;42.762;23.430;2023-07-29T05:57:47;71668.00;;;-142.66;53.61
11468;BME280;5790;42.762;23.430;2023-07-29T06:00:15;71657.81;;;-142.66;52.86
11468;BME280;5790;42.762;23.430;2023-07-29T06:02:42;71629.22;;;-142.66;51.53
11468;BME280;5790;42.762;23.430;2023-07-29T06:05:08;71623.13;;;-142.66;49.60
11468;BME280;5790;42.762;23.430;2023-07-29T06:07:36;71594.56;;;-142.66;51.21
11468;BME280;5790;42.762;23.430;2023-07-29T06:10:04;71580.28;;;-142.66;50.66
11468;BME280;5790;42.762;23.430;2023-07-29T06:12:31;71582.31;;;-142.66;48.61
11468;BME280;5790;42.762;23.430;2023-07-29T06:14:59;71584.34;;;-142.66;49.89
11468;BME280;5790;42.762;23.430;2023-07-29T06:17:26;71582.31;;;-142.66;50.82
11468;BME280;5790;42.762;23.430;2023-07-29T06:19:53;71559.88;;;-142.66;49.91
11468;BME280;5790;42.762;23.430;2023-07-29T06:22:20;71555.78;;;-142.66;48.75
11468;BME280;5790;42.762;23.430;2023-07-29T06:24:47;71555.78;;;-142.66;48.58
11468;BME280;5790;42.762;23.430;2023-07-29T06:27:14;71555.78;;;-142.66;49.19
11468;BME280;5790;42.762;23.430;2023-07-29T06:29:41;71535.38;;;-142.66;50.38
11468;BME280;5790;42.762;23.430;2023-07-29T06:32:10;71502.75;;;-142.66;49.78
11468;BME280;5790;42.762;23.430;2023-07-29T06:34:37;71494.56;;;-142.66;49.93
11468;BME280;5790;42.762;23.430;2023-07-29T06:37:04;71474.19;;;-142.66;49.58
11468;BME280;5790;42.762;23.430;2023-07-29T06:39:31;71455.81;;;-142.66;49.32
11468;BME280;5790;42.762;23.430;2023-07-29T06:41:58;71441.53;;;-142.66;48.96
11468;BME280;5790;42.762;23.430;2023-07-29T06:44:25;71427.25;;;-142.66;49.16
11468;BME280;5790;42.762;23.430;2023-07-29T06:46:52;71429.28;;;-142.66;49.45
11468;BME280;5790;42.762;23.430;2023-07-29T06:49:21;71417.03;;;-142.66;47.87
11468;BME280;5790;42.762;23.430;2023-07-29T06:51:48;71412.97;;;-142.66;44.50
11468;BME280;5790;42.762;23.430;2023-07-29T06:54:16;71390.53;;;-142.66;45.40
11468;BME280;5790;42.762;23.430;2023-07-29T06:56:43;71374.19;;;-142.66;45.60
11468;BME280;5790;42.762;23.430;2023-07-29T06:59:10;71359.91;;;-142.66;46.22
11468;BME280;5790;42.762;23.430;2023-07-29T07:01:38;71368.09;;;-142.66;42.19
11468;BME280;5790;42.762;23.430;2023-07-29T07:04:06;71370.13;;;-142.66;42.99
11468;BME280;5790;42.762;23.430;2023-07-29T07:06:35;71376.25;;;-142.66;43.24
11468;BME280;5790;42.762;23.430;2023-07-29T07:09:02;71353.81;;;-142.66;44.37
11468;BME280;5790;42.762;23.430;2023-07-29T07:11:29;71339.53;;;-142.66;42.12
11468;BME280;5790;42.762;23.430;2023-07-29T07:13:56;71370.13;;;-142.66;42.96
11468;BME280;5790;42.762;23.430;2023-07-29T07:16:24;71361.97;;;-142.66;43.57
11468;BME280;5790;42.762;23.430;2023-07-29T07:18:51;71329.31;;;-142.66;43.75
11468;BME280;5790;42.762;23.430;2023-07-29T07:21:19;71319.13;;;-142.66;42.58
11468;BME280;5790;42.762;23.430;2023-07-29T07:23:49;71310.97;;;-142.66;40.78
11468;BME280;5790;42.762;23.430;2023-07-29T07:26:16;71278.31;;;-142.66;39.59
11468;BME280;5790;42.762;23.430;2023-07-29T07:28:43;71266.06;;;-142.66;40.34
11468;BME280;5790;42.762;23.430;2023-07-29T07:31:10;71284.44;;;-142.66;39.69
11468;BME280;5790;42.762;23.430;2023-07-29T07:33:38;71274.22;;;-142.66;41.24
11468;BME280;5790;42.762;23.430;2023-07-29T07:36:05;71306.88;;;-142.66;40.63
11468;BME280;5790;42.762;23.430;2023-07-29T07:38:32;71257.91;;;-142.66;40.14
11468;BME280;5790;42.762;23.430;2023-07-29T07:41:01;71217.13;;;-142.66;38.39
11468;BME280;5790;42.762;23.430;2023-07-29T07:43:28;71219.16;;;-142.66;36.59
11468;BME280;5790;42.762;23.430;2023-07-29T07:45:59;71180.41;;;-142.66;37.88
11468;BME280;5790;42.762;23.430;2023-07-29T07:48:26;71176.31;;;-142.66;39.43
11468;BME280;5790;42.762;23.430;2023-07-29T07:50:53;71188.56;;;-142.66;36.50
11468;BME280;5790;42.762;23.430;2023-07-29T07:53:20;71174.28;;;-142.66;37.49
11468;BME280;5790;42.762;23.430;2023-07-29T07:55:47;71143.66;;;-142.66;37.60
11468;BME280;5790;42.762;23.430;2023-07-29T07:58:16;71135.50;;;-142.66;37.11
11468;BME280;5790;42.762;23.430;2023-07-29T08:00:43;71111.03;;;-142.66;37.76
11468;BME280;5790;42.762;23.430;2023-07-29T08:03:10;71096.75;;;-142.66;36.84
11468;BME280;5790;42.762;23.430;2023-07-29T08:05:37;71113.06;;;-142.66;35.27
11468;BME280;5790;42.762;23.430;2023-07-29T08:08:04;71090.63;;;-142.66;35.29
11468;BME280;5790;42.762;23.430;2023-07-29T08:10:31;71084.50;;;-142.66;34.36
11468;BME280;5790;42.762;23.430;2023-07-29T08:12:58;71047.78;;;-142.66;34.16
11468;BME280;5790;42.762;23.430;2023-07-29T08:15:27;71045.75;;;-142.66;33.26
11468;BME280;5790;42.762;23.430;2023-07-29T08:17:54;71041.66;;;-142.66;32.85
11468;BME280;5790;42.762;23.430;2023-07-29T08:20:21;71035.56;;;-142.66;34.05
11468;BME280;5790;42.762;23.430;2023-07-29T08:22:48;71023.31;;;-142.66;35.06
11468;BME280;5790;42.762;23.430;2023-07-29T08:25:15;70994.75;;;-142.66;34.68
11468;BME280;5790;42.762;23.430;2023-07-29T08:27:43;70986.59;;;-142.66;33.67
11468;BME280;5790;42.762;23.430;2023-07-29T08:30:10;70982.50;;;-142.66;33.86
11468;BME280;5790;42.762;23.430;2023-07-29T08:32:39;70951.91;;;-142.66;33.61
11468;BME280;5790;42.762;23.430;2023-07-29T08:35:06;70947.84;;;-142.66;32.64
11468;BME280;5790;42.762;23.430;2023-07-29T08:37:33;70953.94;;;-142.66;32.00
11468;BME280;5790;42.762;23.430;2023-07-29T08:40:00;70951.91;;;-142.66;31.60
11468;BME280;5790;42.762;23.430;2023-07-29T08:42:29;70939.66;;;-142.66;32.66
11468;BME280;5790;42.762;23.430;2023-07-29T08:45:04;70941.72;;;-142.66;32.10
11468;BME280;5790;42.762;23.430;2023-07-29T08:47:33;70931.50;;;-142.66;31.76
11468;BME280;5790;42.762;23.430;2023-07-29T08:50:03;70898.88;;;-142.66;33.62
11468;BME280;5790;42.762;23.430;2023-07-29T08:52:31;70931.50;;;-142.66;33.32
11468;BME280;5790;42.762;23.430;2023-07-29T08:55:00;70929.47;;;-142.66;33.36
11468;BME280;5790;42.762;23.430;2023-07-29T08:57:28;70923.34;;;-142.66;32.34
11468;BME280;5790;42.762;23.430;2023-07-29T08:59:56;70927.44;;;-142.66;32.38
11468;BME280;5790;42.762;23.430;2023-07-29T09:02:32;70931.50;;;-142.66;31.77
11468;BME280;5790;42.762;23.430;2023-07-29T09:05:05;70894.78;;;-142.66;31.13
11468;BME280;5790;42.762;23.430;2023-07-29T09:07:33;70886.63;;;-142.66;31.78
11468;BME280;5790;42.762;23.430;2023-07-29T09:10:00;70898.88;;;-142.66;31.40
11468;BME280;5790;42.762;23.430;2023-07-29T09:12:28;70886.63;;;-142.66;30.27
11468;BME280;5790;42.762;23.430;2023-07-29T09:14:55;70902.97;;;-142.66;28.98
11468;BME280;5790;42.762;23.430;2023-07-29T09:17:22;70931.50;;;-142.66;31.19
11468;BME280;5790;42.762;23.430;2023-07-29T09:19:50;70935.59;;;-142.66;30.15
11468;BME280;5790;42.762;23.430;2023-07-29T09:22:20;70927.44;;;-142.66;30.27
11468;BME280;5790;42.762;23.430;2023-07-29T09:24:47;70907.03;;;-142.66;30.22
11468;BME280;5790;42.762;23.430;2023-07-29T09:27:24;70905.00;;;-142.66;29.95
11468;BME280;5790;42.762;23.430;2023-07-29T09:29:52;70888.69;;;-142.66;29.90
11468;BME280;5790;42.762;23.430;2023-07-29T09:32:20;70890.72;;;-142.66;29.06
11468;BME280;5790;42.762;23.430;2023-07-29T09:34:48;70882.56;;;-142.66;30.53
11468;BME280;5790;42.762;23.430;2023-07-29T09:37:16;70921.31;;;-142.66;32.04
11468;BME280;5790;42.762;23.430;2023-07-29T09:39:46;70921.31;;;-142.66;31.52
11468;BME280;5790;42.762;23.430;2023-07-29T09:42:17;70900.91;;;-142.66;30.18
11468;BME280;5790;42.762;23.430;2023-07-29T09:44:45;70902.97;;;-142.66;30.45
11468;BME280;5790;42.762;23.430;2023-07-29T09:47:19;70900.91;;;-142.66;29.98
11468;BME280;5790;42.762;23.430;2023-07-29T09:49:47;70933.56;;;-142.66;31.05
11468;BME280;5790;42.762;23.430;2023-07-29T09:52:16;70931.50;;;-142.66;32.16
11468;BME280;5790;42.762;23.430;2023-07-29T09:54:43;70929.47;;;-142.66;33.71
11468;BME280;5790;42.762;23.430;2023-07-29T09:57:13;70929.47;;;-142.66;32.99
11468;BME280;5790;42.762;23.430;2023-07-29T09:59:41;70917.22;;;-142.66;33.49
11468;BME280;5790;42.762;23.430;2023-07-29T10:02:13;70927.44;;;-142.66;32.70
11468;BME280;5790;42.762;23.430;2023-07-29T10:04:42;70931.50;;;-142.66;33.98
11468;BME280;5790;42.762;23.430;2023-07-29T10:07:12;70923.34;;;-142.66;33.51
11468;BME280;5790;42.762;23.430;2023-07-29T10:09:39;70913.16;;;-142.66;33.15
11468;BME280;5790;42.762;23.430;2023-07-29T10:12:07;70898.88;;;-142.66;34.01
11468;BME280;5790;42.762;23.430;2023-07-29T10:14:38;70898.88;;;-142.66;33.98
11468;BME280;5790;42.762;23.430;2023-07-29T10:17:05;70890.72;;;-142.66;32.18
11468;BME280;5790;42.762;23.430;2023-07-29T10:19:34;70898.88;;;-142.66;33.42
11468;BME280;5790;42.762;23.430;2023-07-29T10:22:03;70886.63;;;-142.66;33.29
11468;BME280;5790;42.762;23.430;2023-07-29T10:24:32;70868.28;;;-142.66;35.49
11468;BME280;5790;42.762;23.430;2023-07-29T10:27:00;70858.06;;;-142.66;34.35
11468;BME280;5790;42.762;23.430;2023-07-29T10:29:31;70849.91;;;-142.66;33.55
11468;BME280;5790;42.762;23.430;2023-07-29T10:32:01;70833.59;;;-142.66;32.82
11468;BME280;5790;42.762;23.430;2023-07-29T10:34:29;70868.28;;;-142.66;32.11
11468;BME280;5790;42.762;23.430;2023-07-29T10:36:57;70876.44;;;-142.66;33.78
11468;BME280;5790;42.762;23.430;2023-07-29T10:39:25;70854.00;;;-142.66;32.06
11468;BME280;5790;42.762;23.430;2023-07-29T10:41:57;70843.78;;;-142.66;31.57
11468;BME280;5790;42.762;23.430;2023-07-29T10:44:51;70854.00;;;-142.66;32.80
11468;BME280;5790;42.762;23.430;2023-07-29T10:47:22;70839.72;;;-142.66;32.95
11468;BME280;5790;42.762;23.430;2023-07-29T10:49:51;70833.59;;;-142.66;33.90
11468;BME280;5790;42.762;23.430;2023-07-29T10:52:32;70827.47;;;-142.66;32.17
11468;BME280;5790;42.762;23.430;2023-07-29T10:55:26;70811.16;;;-142.66;32.93
11468;BME280;5790;42.762;23.430;2023-07-29T10:58:05;70809.13;;;-142.66;31.69
11468;BME280;5790;42.762;23.430;2023-07-29T11:00:32;70788.72;;;-142.66;31.32
11468;BME280;5790;42.762;23.430;2023-07-29T11:03:02;70774.44;;;-142.66;30.74
11468;BME280;5790;42.762;23.430;2023-07-29T11:05:49;70780.56;;;-142.66;31.23
11468;BME280;5790;42.762;23.430;2023-07-29T11:08:22;70786.69;;;-142.66;30.25
11468;BME280;5790;42.762;23.430;2023-07-29T11:11:04;70796.88;;;-142.66;29.83
11468;BME280;5790;42.762;23.430;2023-07-29T11:13:32;70788.72;;;-142.66;30.47
11468;BME280;5790;42.762;23.430;2023-07-29T11:16:00;70794.84;;;-142.66;28.47
11468;BME280;5790;42.762;23.430;2023-07-29T11:18:30;70786.69;;;-142.66;28.46
11468;BME280;5790;42.762;23.430;2023-07-29T11:20:58;70774.44;;;-142.66;28.02
11468;BME280;5790;42.762;23.430;2023-07-29T11:23:32;70776.47;;;-142.66;29.08
11468;BME280;5790;42.762;23.430;2023-07-29T11:26:01;70774.44;;;-142.66;27.55
11468;BME280;5790;42.762;23.430;2023-07-29T11:28:28;70774.44;;;-142.66;27.39
11468;BME280;5790;42.762;23.430;2023-07-29T11:30:57;70758.13;;;-142.66;29.01
11468;BME280;5790;42.762;23.430;2023-07-29T11:33:25;70743.84;;;-142.66;29.93
11468;BME280;5790;42.762;23.430;2023-07-29T11:35:55;70739.75;;;-142.66;28.15
11468;BME280;5790;42.762;23.430;2023-07-29T11:38:22;70733.66;;;-142.66;27.95
11468;BME280;5790;42.762;23.430;2023-07-29T11:40:57;70713.25;;;-142.66;28.07
11468;BME280;5790;42.762;23.430;2023-07-29T11:43:25;70705.09;;;-142.66;27.51
11468;BME280;5790;42.762;23.430;2023-07-29T11:45:52;70694.88;;;-142.66;27.59
11468;BME280;5790;42.762;23.430;2023-07-29T11:48:26;70688.78;;;-142.66;27.42
11468;BME280;5790;42.762;23.430;2023-07-29T11:50:55;70672.47;;;-142.66;27.39
11468;BME280;5790;42.762;23.430;2023-07-29T11:53:22;70674.50;;;-142.66;28.44
11468;BME280;5790;42.762;23.430;2023-07-29T11:55:53;70668.38;;;-142.66;26.78
11468;BME280;5790;42.762;23.430;2023-07-29T11:58:21;70664.28;;;-142.66;26.32
11468;BME280;5790;42.762;23.430;2023-07-29T12:00:48;70660.22;;;-142.66;26.99
11468;BME280;5790;42.762;23.430;2023-07-29T12:03:16;70658.19;;;-142.66;26.15
11468;BME280;5790;42.762;23.430;2023-07-29T12:05:44;70664.28;;;-142.66;25.74
11468;BME280;5790;42.762;23.430;2023-07-29T12:08:13;70652.06;;;-142.66;26.05
11468;BME280;5790;42.762;23.430;2023-07-29T12:10:41;70652.06;;;-142.66;24.96
11468;BME280;5790;42.762;23.430;2023-07-29T12:13:08;70641.84;;;-142.66;25.22
11468;BME280;5790;42.762;23.430;2023-07-29T12:15:38;70652.06;;;-142.66;24.80
11468;BME280;5790;42.762;23.430;2023-07-29T12:18:05;70629.63;;;-142.66;24.97
11468;BME280;5790;42.762;23.430;2023-07-29T12:20:34;70627.59;;;-142.66;25.25
11468;BME280;5790;42.762;23.430;2023-07-29T12:23:01;70617.38;;;-142.66;24.61
11468;BME280;5790;42.762;23.430;2023-07-29T12:25:32;70613.31;;;-142.66;24.43
11468;BME280;5790;42.762;23.430;2023-07-29T12:28:03;70603.09;;;-142.66;25.18
11468;BME280;5790;42.762;23.430;2023-07-29T12:30:32;70605.16;;;-142.66;23.59
11468;BME280;5790;42.762;23.430;2023-07-29T12:32:59;70613.31;;;-142.66;25.06
11468;BME280;5790;42.762;23.430;2023-07-29T12:35:36;70603.09;;;-142.66;24.51
11468;BME280;5790;42.762;23.430;2023-07-29T12:38:04;70603.09;;;-142.66;24.09
11468;BME280;5790;42.762;23.430;2023-07-29T12:40:32;70599.03;;;-142.66;24.11
11468;BME280;5790;42.762;23.430;2023-07-29T12:43:00;70592.91;;;-142.66;24.41
11468;BME280;5790;42.762;23.430;2023-07-29T12:45:27;70586.78;;;-142.66;23.35